sensor_id;sensor_type;location;lat;lon;timestamp;P1;durP1;ratioP1;P2;durP2;ratioP2
73678;SDS011;61978;52.742;16.962;2022-07-03T09:49:51;17.15;;;2.70;;
73678;SDS011;61978;52.742;16.962;2022-07-03T09:52:27;18.50;;;4.15;;
73678;SDS011;61978;52.742;16.962;2022-07-03T09:54:56;14.95;;;3.15;;
73678;SDS011;61978;52.742;16.962;2022-07-03T09:57:29;10.63;;;2.65;;
73678;SDS011;61978;52.742;16.962;2022-07-03T10:05:38;10.43;;;2.75;;
73678;SDS011;61978;52.742;16.962;2022-07-03T10:08:10;12.85;;;3.37;;
73678;SDS011;61978;52.742;16.962;2022-07-03T10:10:44;12.43;;;2.60;;
73678;SDS011;61978;52.742;16.962;2022-07-03T10:13:09;10.03;;;2.47;;
73678;SDS011;61978;52.742;16.962;2022-07-03T10:15:36;12.58;;;2.08;;
73678;SDS011;61978;52.742;16.962;2022-07-03T10:18:05;8.90;;;2.27;;
73678;SDS011;61978;52.742;16.962;2022-07-03T10:20:35;10.55;;;2.10;;
73678;SDS011;61978;52.742;16.962;2022-07-03T10:23:04;8.98;;;2.50;;
73678;SDS011;61978;52.742;16.962;2022-07-03T10:25:34;9.13;;;2.02;;
73678;SDS011;61978;52.742;16.962;2022-07-03T10:28:02;4.42;;;1.67;;
73678;SDS011;61978;52.742;16.962;2022-07-03T10:30:32;12.37;;;2.15;;
73678;SDS011;61978;52.742;16.962;2022-07-03T10:33:00;5.37;;;1.87;;
73678;SDS011;61978;52.742;16.962;2022-07-03T10:35:38;3.98;;;1.90;;
73678;SDS011;61978;52.742;16.962;2022-07-03T10:44:07;5.67;;;2.58;;
73678;SDS011;61978;52.742;16.962;2022-07-03T10:46:54;6.10;;;2.60;;
73678;SDS011;61978;52.742;16.962;2022-07-03T10:49:26;4.87;;;2.83;;
73678;SDS011;61978;52.742;16.962;2022-07-03T10:52:15;5.65;;;2.95;;
73678;SDS011;61978;52.742;16.962;2022-07-03T10:54:49;4.22;;;2.77;;
73678;SDS011;61978;52.742;16.962;2022-07-03T10:57:18;6.83;;;3.20;;
73678;SDS011;61978;52.742;16.962;2022-07-03T11:02:21;4.97;;;2.35;;
73678;SDS011;61978;52.742;16.962;2022-07-03T11:18:24;6.58;;;5.47;;
73678;SDS011;61978;52.742;16.962;2022-07-03T11:21:08;6.40;;;4.33;;
73678;SDS011;61978;52.742;16.962;2022-07-03T11:26:28;5.03;;;4.25;;
73678;SDS011;61978;52.742;16.962;2022-07-03T11:28:56;4.95;;;3.90;;
73678;SDS011;61978;52.742;16.962;2022-07-03T11:31:24;7.37;;;3.77;;
73678;SDS011;61978;52.742;16.962;2022-07-03T11:36:26;4.12;;;2.17;;
73678;SDS011;61978;52.742;16.962;2022-07-03T11:44:07;1.57;;;1.47;;
73678;SDS011;61978;52.742;16.962;2022-07-03T11:46:37;2.50;;;1.60;;
73678;SDS011;61978;52.742;16.962;2022-07-03T11:49:06;4.70;;;1.70;;
73678;SDS011;61978;52.742;16.962;2022-07-03T11:51:39;1.40;;;1.30;;
73678;SDS011;61978;52.742;16.962;2022-07-03T11:54:08;4.25;;;1.42;;
73678;SDS011;61978;52.742;16.962;2022-07-03T11:56:37;3.72;;;1.80;;
73678;SDS011;61978;52.742;16.962;2022-07-03T11:59:06;2.22;;;1.50;;
73678;SDS011;61978;52.742;16.962;2022-07-03T12:01:34;5.62;;;1.50;;
73678;SDS011;61978;52.742;16.962;2022-07-03T12:04:07;1.47;;;1.30;;
73678;SDS011;61978;52.742;16.962;2022-07-03T12:06:43;2.80;;;1.67;;
73678;SDS011;61978;52.742;16.962;2022-07-03T12:09:19;3.22;;;1.37;;
73678;SDS011;61978;52.742;16.962;2022-07-03T12:14:43;2.62;;;1.60;;
73678;SDS011;61978;52.742;16.962;2022-07-03T12:17:13;2.95;;;1.55;;
73678;SDS011;61978;52.742;16.962;2022-07-03T12:19:53;2.20;;;1.32;;
73678;SDS011;61978;52.742;16.962;2022-07-03T12:22:27;2.25;;;1.20;;
73678;SDS011;61978;52.742;16.962;2022-07-03T12:27:33;3.17;;;1.40;;
73678;SDS011;61978;52.742;16.962;2022-07-03T12:30:02;2.10;;;1.60;;
73678;SDS011;61978;52.742;16.962;2022-07-03T12:34:59;2.00;;;1.65;;
73678;SDS011;61978;52.742;16.962;2022-07-03T12:37:40;1.70;;;1.50;;
73678;SDS011;61978;52.742;16.962;2022-07-03T12:40:06;2.55;;;1.50;;
73678;SDS011;61978;52.742;16.962;2022-07-03T12:42:44;4.78;;;1.72;;
73678;SDS011;61978;52.742;16.962;2022-07-03T12:45:17;3.27;;;1.60;;
73678;SDS011;61978;52.742;16.962;2022-07-03T12:47:56;2.70;;;2.22;;
73678;SDS011;61978;52.742;16.962;2022-07-03T12:50:26;3.08;;;2.62;;
73678;SDS011;61978;52.742;16.962;2022-07-03T12:52:57;5.28;;;2.83;;
73678;SDS011;61978;52.742;16.962;2022-07-03T12:55:24;2.85;;;2.52;;
73678;SDS011;61978;52.742;16.962;2022-07-03T13:00:59;10.05;;;8.13;;
73678;SDS011;61978;52.742;16.962;2022-07-03T13:03:30;12.05;;;9.93;;
73678;SDS011;61978;52.742;16.962;2022-07-03T13:06:00;16.62;;;10.58;;
73678;SDS011;61978;52.742;16.962;2022-07-03T13:08:32;10.93;;;8.98;;
73678;SDS011;61978;52.742;16.962;2022-07-03T13:10:59;7.87;;;6.87;;
73678;SDS011;61978;52.742;16.962;2022-07-03T13:13:39;10.32;;;6.90;;
73678;SDS011;61978;52.742;16.962;2022-07-03T13:15:59;16.52;;;8.50;;
73678;SDS011;61978;52.742;16.962;2022-07-03T13:18:28;17.48;;;9.78;;
73678;SDS011;61978;52.742;16.962;2022-07-03T13:20:55;15.30;;;10.45;;
73678;SDS011;61978;52.742;16.962;2022-07-03T13:23:25;16.95;;;10.50;;
73678;SDS011;61978;52.742;16.962;2022-07-03T13:25:52;19.30;;;11.03;;
73678;SDS011;61978;52.742;16.962;2022-07-03T13:28:20;18.15;;;10.72;;
73678;SDS011;61978;52.742;16.962;2022-07-03T13:30:50;16.17;;;11.45;;
73678;SDS011;61978;52.742;16.962;2022-07-03T13:33:19;20.80;;;11.90;;
73678;SDS011;61978;52.742;16.962;2022-07-03T13:35:48;19.37;;;12.03;;
73678;SDS011;61978;52.742;16.962;2022-07-03T13:38:16;28.20;;;13.48;;
73678;SDS011;61978;52.742;16.962;2022-07-03T13:40:46;21.48;;;13.18;;
73678;SDS011;61978;52.742;16.962;2022-07-03T13:43:13;23.22;;;13.30;;
73678;SDS011;61978;52.742;16.962;2022-07-03T13:45:41;23.75;;;13.75;;
73678;SDS011;61978;52.742;16.962;2022-07-03T13:48:09;21.97;;;13.95;;
73678;SDS011;61978;52.742;16.962;2022-07-03T13:50:37;21.12;;;15.38;;
73678;SDS011;61978;52.742;16.962;2022-07-03T13:53:12;21.73;;;13.55;;
73678;SDS011;61978;52.742;16.962;2022-07-03T13:55:45;23.07;;;14.15;;
73678;SDS011;61978;52.742;16.962;2022-07-03T13:58:14;21.00;;;13.30;;
73678;SDS011;61978;52.742;16.962;2022-07-03T14:00:41;21.12;;;13.65;;
73678;SDS011;61978;52.742;16.962;2022-07-03T14:03:11;20.15;;;12.65;;
73678;SDS011;61978;52.742;16.962;2022-07-03T14:05:39;21.73;;;12.25;;
73678;SDS011;61978;52.742;16.962;2022-07-03T14:08:06;19.62;;;13.85;;
73678;SDS011;61978;52.742;16.962;2022-07-03T14:10:36;20.57;;;13.72;;
73678;SDS011;61978;52.742;16.962;2022-07-03T14:13:04;15.38;;;11.10;;
73678;SDS011;61978;52.742;16.962;2022-07-03T14:15:32;16.00;;;11.50;;
73678;SDS011;61978;52.742;16.962;2022-07-03T14:18:00;15.90;;;11.12;;
73678;SDS011;61978;52.742;16.962;2022-07-03T14:20:28;14.75;;;10.93;;
73678;SDS011;61978;52.742;16.962;2022-07-03T14:22:55;16.77;;;11.40;;
73678;SDS011;61978;52.742;16.962;2022-07-03T14:25:22;16.25;;;10.38;;
73678;SDS011;61978;52.742;16.962;2022-07-03T14:27:49;14.63;;;10.15;;
73678;SDS011;61978;52.742;16.962;2022-07-03T14:30:35;16.75;;;10.25;;
73678;SDS011;61978;52.742;16.962;2022-07-03T14:33:20;15.58;;;10.25;;
73678;SDS011;61978;52.742;16.962;2022-07-03T14:35:49;13.78;;;9.88;;
73678;SDS011;61978;52.742;16.962;2022-07-03T14:38:19;14.53;;;9.35;;
73678;SDS011;61978;52.742;16.962;2022-07-03T14:40:46;15.45;;;9.48;;
73678;SDS011;61978;52.742;16.962;2022-07-03T14:43:14;11.68;;;7.65;;
73678;SDS011;61978;52.742;16.962;2022-07-03T14:45:43;12.50;;;8.33;;
73678;SDS011;61978;52.742;16.962;2022-07-03T14:48:11;11.00;;;6.67;;
73678;SDS011;61978;52.742;16.962;2022-07-03T14:50:42;11.22;;;6.78;;
73678;SDS011;61978;52.742;16.962;2022-07-03T14:53:11;9.88;;;7.03;;
73678;SDS011;61978;52.742;16.962;2022-07-03T14:55:40;9.05;;;6.67;;
73678;SDS011;61978;52.742;16.962;2022-07-03T15:00:55;7.97;;;5.97;;
73678;SDS011;61978;52.742;16.962;2022-07-03T15:03:27;7.70;;;5.25;;
73678;SDS011;61978;52.742;16.962;2022-07-03T15:05:57;8.35;;;5.00;;
73678;SDS011;61978;52.742;16.962;2022-07-03T15:11:13;5.92;;;4.30;;
73678;SDS011;61978;52.742;16.962;2022-07-03T15:14:02;7.65;;;4.45;;
73678;SDS011;61978;52.742;16.962;2022-07-03T15:16:32;5.67;;;4.22;;
73678;SDS011;61978;52.742;16.962;2022-07-03T15:19:00;6.85;;;4.47;;
73678;SDS011;61978;52.742;16.962;2022-07-03T15:21:29;4.67;;;3.90;;
73678;SDS011;61978;52.742;16.962;2022-07-03T15:24:04;3.47;;;3.13;;
73678;SDS011;61978;52.742;16.962;2022-07-03T15:26:35;4.08;;;3.15;;
73678;SDS011;61978;52.742;16.962;2022-07-03T15:29:06;4.25;;;3.10;;
73678;SDS011;61978;52.742;16.962;2022-07-03T15:31:37;5.58;;;3.08;;
73678;SDS011;61978;52.742;16.962;2022-07-03T15:34:06;2.90;;;2.40;;
73678;SDS011;61978;52.742;16.962;2022-07-03T15:36:56;4.65;;;2.75;;
73678;SDS011;61978;52.742;16.962;2022-07-03T15:39:48;5.42;;;2.72;;
73678;SDS011;61978;52.742;16.962;2022-07-03T15:48:05;3.52;;;2.08;;
73678;SDS011;61978;52.742;16.962;2022-07-03T15:53:24;2.50;;;1.98;;
73678;SDS011;61978;52.742;16.962;2022-07-03T15:55:54;2.77;;;1.80;;
73678;SDS011;61978;52.742;16.962;2022-07-03T15:58:26;2.27;;;1.87;;
73678;SDS011;61978;52.742;16.962;2022-07-03T16:00:58;2.08;;;1.67;;
73678;SDS011;61978;52.742;16.962;2022-07-03T16:03:53;1.80;;;1.70;;
73678;SDS011;61978;52.742;16.962;2022-07-03T16:06:21;3.70;;;2.20;;
73678;SDS011;61978;52.742;16.962;2022-07-03T16:08:50;2.00;;;1.57;;
73678;SDS011;61978;52.742;16.962;2022-07-03T16:11:20;9.08;;;1.50;;
73678;SDS011;61978;52.742;16.962;2022-07-03T16:13:50;2.45;;;1.55;;
73678;SDS011;61978;52.742;16.962;2022-07-03T16:16:21;3.47;;;1.85;;
73678;SDS011;61978;52.742;16.962;2022-07-03T16:18:51;2.10;;;1.42;;
73678;SDS011;61978;52.742;16.962;2022-07-03T16:21:21;2.22;;;1.70;;
73678;SDS011;61978;52.742;16.962;2022-07-03T16:23:50;1.92;;;1.65;;
73678;SDS011;61978;52.742;16.962;2022-07-03T16:26:18;2.75;;;1.75;;
73678;SDS011;61978;52.742;16.962;2022-07-03T16:28:47;2.12;;;1.77;;
73678;SDS011;61978;52.742;16.962;2022-07-03T16:31:16;1.67;;;1.57;;
73678;SDS011;61978;52.742;16.962;2022-07-03T16:33:49;1.75;;;1.65;;
73678;SDS011;61978;52.742;16.962;2022-07-03T16:36:18;1.80;;;1.70;;
73678;SDS011;61978;52.742;16.962;2022-07-03T16:38:51;2.95;;;1.50;;
73678;SDS011;61978;52.742;16.962;2022-07-03T16:41:16;6.37;;;1.87;;
73678;SDS011;61978;52.742;16.962;2022-07-03T16:43:47;1.40;;;1.30;;
73678;SDS011;61978;52.742;16.962;2022-07-03T16:46:18;3.37;;;1.40;;
73678;SDS011;61978;52.742;16.962;2022-07-03T16:48:48;1.82;;;1.45;;
73678;SDS011;61978;52.742;16.962;2022-07-03T16:51:17;1.57;;;1.47;;
73678;SDS011;61978;52.742;16.962;2022-07-03T16:53:45;2.08;;;1.65;;
73678;SDS011;61978;52.742;16.962;2022-07-03T16:56:12;2.45;;;1.55;;
73678;SDS011;61978;52.742;16.962;2022-07-03T16:58:42;2.15;;;1.92;;
73678;SDS011;61978;52.742;16.962;2022-07-03T17:01:10;2.15;;;1.40;;
73678;SDS011;61978;52.742;16.962;2022-07-03T17:03:38;1.70;;;1.60;;
73678;SDS011;61978;52.742;16.962;2022-07-03T17:06:06;2.20;;;1.67;;
73678;SDS011;61978;52.742;16.962;2022-07-03T17:08:34;4.42;;;1.85;;
73678;SDS011;61978;52.742;16.962;2022-07-03T17:11:03;7.37;;;2.42;;
73678;SDS011;61978;52.742;16.962;2022-07-03T17:13:33;6.33;;;1.75;;
73678;SDS011;61978;52.742;16.962;2022-07-03T17:16:03;4.53;;;1.50;;
73678;SDS011;61978;52.742;16.962;2022-07-03T17:18:40;6.90;;;1.60;;
73678;SDS011;61978;52.742;16.962;2022-07-03T17:21:04;3.45;;;1.60;;
73678;SDS011;61978;52.742;16.962;2022-07-03T17:23:32;3.15;;;1.67;;
73678;SDS011;61978;52.742;16.962;2022-07-03T17:26:04;4.97;;;1.67;;
73678;SDS011;61978;52.742;16.962;2022-07-03T17:28:45;3.80;;;1.67;;
73678;SDS011;61978;52.742;16.962;2022-07-03T17:31:06;5.10;;;1.75;;
73678;SDS011;61978;52.742;16.962;2022-07-03T17:33:35;3.52;;;1.72;;
73678;SDS011;61978;52.742;16.962;2022-07-03T17:36:04;2.05;;;1.12;;
73678;SDS011;61978;52.742;16.962;2022-07-03T17:38:34;2.67;;;1.40;;
73678;SDS011;61978;52.742;16.962;2022-07-03T17:41:03;2.83;;;1.25;;
73678;SDS011;61978;52.742;16.962;2022-07-03T17:43:31;4.45;;;1.47;;
73678;SDS011;61978;52.742;16.962;2022-07-03T17:45:58;2.02;;;1.12;;
73678;SDS011;61978;52.742;16.962;2022-07-03T17:48:26;3.12;;;1.20;;
73678;SDS011;61978;52.742;16.962;2022-07-03T17:50:54;2.52;;;1.45;;
73678;SDS011;61978;52.742;16.962;2022-07-03T17:53:22;4.28;;;1.40;;
73678;SDS011;61978;52.742;16.962;2022-07-03T17:55:49;4.45;;;1.27;;
73678;SDS011;61978;52.742;16.962;2022-07-03T17:58:17;3.10;;;1.07;;
73678;SDS011;61978;52.742;16.962;2022-07-03T18:00:46;1.42;;;1.05;;
73678;SDS011;61978;52.742;16.962;2022-07-03T18:03:15;2.75;;;0.90;;
73678;SDS011;61978;52.742;16.962;2022-07-03T18:05:44;3.30;;;1.00;;
73678;SDS011;61978;52.742;16.962;2022-07-03T18:08:16;3.22;;;1.12;;
73678;SDS011;61978;52.742;16.962;2022-07-03T18:10:54;3.08;;;1.00;;
73678;SDS011;61978;52.742;16.962;2022-07-03T18:16:13;3.30;;;1.02;;
73678;SDS011;61978;52.742;16.962;2022-07-03T18:18:39;3.05;;;1.00;;
73678;SDS011;61978;52.742;16.962;2022-07-03T18:21:08;1.85;;;1.10;;
73678;SDS011;61978;52.742;16.962;2022-07-03T18:26:33;5.85;;;1.52;;
73678;SDS011;61978;52.742;16.962;2022-07-03T18:28:59;1.72;;;1.10;;
73678;SDS011;61978;52.742;16.962;2022-07-03T18:31:28;2.92;;;1.00;;
73678;SDS011;61978;52.742;16.962;2022-07-03T18:33:54;1.87;;;1.00;;
73678;SDS011;61978;52.742;16.962;2022-07-03T18:36:22;4.12;;;1.70;;
73678;SDS011;61978;52.742;16.962;2022-07-03T18:38:50;2.58;;;0.95;;
73678;SDS011;61978;52.742;16.962;2022-07-03T18:41:17;1.65;;;1.02;;
73678;SDS011;61978;52.742;16.962;2022-07-03T18:43:44;2.27;;;1.02;;
73678;SDS011;61978;52.742;16.962;2022-07-03T18:46:11;1.15;;;0.70;;
73678;SDS011;61978;52.742;16.962;2022-07-03T18:48:38;3.05;;;0.80;;
73678;SDS011;61978;52.742;16.962;2022-07-03T18:54:01;7.22;;;2.00;;
73678;SDS011;61978;52.742;16.962;2022-07-03T18:56:41;1.27;;;1.07;;
73678;SDS011;61978;52.742;16.962;2022-07-03T18:59:32;1.75;;;1.10;;
73678;SDS011;61978;52.742;16.962;2022-07-03T19:02:20;3.70;;;1.00;;
73678;SDS011;61978;52.742;16.962;2022-07-03T19:04:46;4.67;;;0.90;;
73678;SDS011;61978;52.742;16.962;2022-07-03T19:07:22;2.67;;;1.00;;
73678;SDS011;61978;52.742;16.962;2022-07-03T19:09:51;2.90;;;1.20;;
73678;SDS011;61978;52.742;16.962;2022-07-03T19:12:30;2.70;;;1.17;;
73678;SDS011;61978;52.742;16.962;2022-07-03T19:14:58;3.17;;;1.35;;
73678;SDS011;61978;52.742;16.962;2022-07-03T19:17:31;2.37;;;1.00;;
73678;SDS011;61978;52.742;16.962;2022-07-03T19:19:59;5.20;;;1.30;;
73678;SDS011;61978;52.742;16.962;2022-07-03T19:22:28;4.65;;;1.22;;
73678;SDS011;61978;52.742;16.962;2022-07-03T19:24:55;3.52;;;1.15;;
73678;SDS011;61978;52.742;16.962;2022-07-03T19:27:25;4.58;;;1.22;;
73678;SDS011;61978;52.742;16.962;2022-07-03T19:29:53;5.53;;;1.70;;
73678;SDS011;61978;52.742;16.962;2022-07-03T19:32:21;3.62;;;1.47;;
73678;SDS011;61978;52.742;16.962;2022-07-03T19:34:48;2.67;;;1.50;;
73678;SDS011;61978;52.742;16.962;2022-07-03T19:37:15;2.25;;;1.20;;
73678;SDS011;61978;52.742;16.962;2022-07-03T19:39:44;2.25;;;1.32;;
73678;SDS011;61978;52.742;16.962;2022-07-03T19:42:12;2.87;;;1.60;;
73678;SDS011;61978;52.742;16.962;2022-07-03T19:44:39;4.85;;;1.30;;
73678;SDS011;61978;52.742;16.962;2022-07-03T19:47:06;4.33;;;2.05;;
73678;SDS011;61978;52.742;16.962;2022-07-03T19:49:37;4.22;;;2.33;;
73678;SDS011;61978;52.742;16.962;2022-07-03T19:52:07;4.20;;;1.98;;
73678;SDS011;61978;52.742;16.962;2022-07-03T19:54:35;5.80;;;2.33;;
73678;SDS011;61978;52.742;16.962;2022-07-03T19:57:08;2.92;;;2.58;;
73678;SDS011;61978;52.742;16.962;2022-07-03T19:59:35;5.12;;;2.75;;
73678;SDS011;61978;52.742;16.962;2022-07-03T20:02:04;5.55;;;3.22;;
73678;SDS011;61978;52.742;16.962;2022-07-03T20:04:31;6.83;;;3.70;;
73678;SDS011;61978;52.742;16.962;2022-07-03T20:06:58;7.72;;;3.70;;
73678;SDS011;61978;52.742;16.962;2022-07-03T20:09:28;6.12;;;3.08;;
73678;SDS011;61978;52.742;16.962;2022-07-03T20:12:04;4.50;;;2.90;;
73678;SDS011;61978;52.742;16.962;2022-07-03T20:14:34;4.08;;;2.65;;
73678;SDS011;61978;52.742;16.962;2022-07-03T20:17:04;3.80;;;2.83;;
73678;SDS011;61978;52.742;16.962;2022-07-03T20:19:32;6.22;;;3.58;;
73678;SDS011;61978;52.742;16.962;2022-07-03T20:22:01;6.50;;;3.17;;
73678;SDS011;61978;52.742;16.962;2022-07-03T20:24:31;12.00;;;4.80;;
73678;SDS011;61978;52.742;16.962;2022-07-03T20:27:04;3.90;;;2.40;;
73678;SDS011;61978;52.742;16.962;2022-07-03T20:29:45;13.05;;;4.40;;
73678;SDS011;61978;52.742;16.962;2022-07-03T20:32:09;39.27;;;8.00;;
73678;SDS011;61978;52.742;16.962;2022-07-03T20:34:37;44.05;;;9.45;;
73678;SDS011;61978;52.742;16.962;2022-07-03T20:37:06;55.67;;;10.82;;
73678;SDS011;61978;52.742;16.962;2022-07-03T20:39:41;55.25;;;10.50;;
73678;SDS011;61978;52.742;16.962;2022-07-03T20:42:07;58.85;;;12.55;;
73678;SDS011;61978;52.742;16.962;2022-07-03T20:44:35;64.10;;;11.88;;
73678;SDS011;61978;52.742;16.962;2022-07-03T20:47:03;56.13;;;12.13;;
73678;SDS011;61978;52.742;16.962;2022-07-03T20:49:30;29.02;;;7.00;;
73678;SDS011;61978;52.742;16.962;2022-07-03T20:51:58;29.27;;;6.00;;
73678;SDS011;61978;52.742;16.962;2022-07-03T20:54:25;19.42;;;5.97;;
73678;SDS011;61978;52.742;16.962;2022-07-03T20:56:55;27.77;;;6.55;;
73678;SDS011;61978;52.742;16.962;2022-07-03T20:59:21;23.50;;;6.17;;
73678;SDS011;61978;52.742;16.962;2022-07-03T21:01:50;15.75;;;5.17;;
73678;SDS011;61978;52.742;16.962;2022-07-03T21:04:18;23.25;;;6.05;;
73678;SDS011;61978;52.742;16.962;2022-07-03T21:06:46;18.37;;;6.37;;
73678;SDS011;61978;52.742;16.962;2022-07-03T21:09:14;16.95;;;4.75;;
73678;SDS011;61978;52.742;16.962;2022-07-03T21:11:47;10.15;;;4.78;;
73678;SDS011;61978;52.742;16.962;2022-07-03T21:14:17;16.77;;;4.80;;
73678;SDS011;61978;52.742;16.962;2022-07-03T21:16:48;11.75;;;4.03;;
73678;SDS011;61978;52.742;16.962;2022-07-03T21:19:19;18.10;;;3.25;;
73678;SDS011;61978;52.742;16.962;2022-07-03T21:21:47;11.93;;;3.70;;
73678;SDS011;61978;52.742;16.962;2022-07-03T21:24:15;10.05;;;3.87;;
73678;SDS011;61978;52.742;16.962;2022-07-03T21:26:45;8.73;;;3.80;;
73678;SDS011;61978;52.742;16.962;2022-07-03T21:29:14;9.00;;;3.40;;
73678;SDS011;61978;52.742;16.962;2022-07-03T21:31:43;5.87;;;2.77;;
73678;SDS011;61978;52.742;16.962;2022-07-03T21:34:11;9.35;;;3.27;;
73678;SDS011;61978;52.742;16.962;2022-07-03T21:36:38;7.50;;;3.50;;
73678;SDS011;61978;52.742;16.962;2022-07-03T21:39:05;7.42;;;3.05;;
73678;SDS011;61978;52.742;16.962;2022-07-03T21:41:35;10.85;;;3.92;;
73678;SDS011;61978;52.742;16.962;2022-07-03T21:44:03;11.03;;;3.35;;
73678;SDS011;61978;52.742;16.962;2022-07-03T21:46:31;10.03;;;3.30;;
73678;SDS011;61978;52.742;16.962;2022-07-03T21:49:02;6.92;;;3.08;;
73678;SDS011;61978;52.742;16.962;2022-07-03T21:51:29;5.28;;;3.15;;
73678;SDS011;61978;52.742;16.962;2022-07-03T21:53:58;5.37;;;2.80;;
73678;SDS011;61978;52.742;16.962;2022-07-03T21:56:25;4.30;;;2.65;;
73678;SDS011;61978;52.742;16.962;2022-07-03T21:58:53;11.70;;;3.47;;
73678;SDS011;61978;52.742;16.962;2022-07-03T22:01:22;14.33;;;3.75;;
73678;SDS011;61978;52.742;16.962;2022-07-03T22:03:50;14.07;;;3.75;;
73678;SDS011;61978;52.742;16.962;2022-07-03T22:06:17;16.32;;;4.10;;
73678;SDS011;61978;52.742;16.962;2022-07-03T22:08:44;13.98;;;4.00;;
73678;SDS011;61978;52.742;16.962;2022-07-03T22:11:13;14.73;;;4.20;;
73678;SDS011;61978;52.742;16.962;2022-07-03T22:13:42;15.75;;;3.87;;
73678;SDS011;61978;52.742;16.962;2022-07-03T22:16:09;11.85;;;4.03;;
73678;SDS011;61978;52.742;16.962;2022-07-03T22:18:38;9.73;;;3.98;;
73678;SDS011;61978;52.742;16.962;2022-07-03T22:21:08;11.28;;;4.15;;
73678;SDS011;61978;52.742;16.962;2022-07-03T22:23:37;18.25;;;5.47;;
73678;SDS011;61978;52.742;16.962;2022-07-03T22:26:04;19.20;;;4.83;;
73678;SDS011;61978;52.742;16.962;2022-07-03T22:28:33;14.40;;;4.53;;
73678;SDS011;61978;52.742;16.962;2022-07-03T22:30:59;12.37;;;3.85;;
73678;SDS011;61978;52.742;16.962;2022-07-03T22:33:45;16.02;;;4.55;;
73678;SDS011;61978;52.742;16.962;2022-07-03T22:36:12;8.93;;;3.55;;
73678;SDS011;61978;52.742;16.962;2022-07-03T22:38:41;5.65;;;3.20;;
73678;SDS011;61978;52.742;16.962;2022-07-03T22:41:08;8.05;;;2.85;;
73678;SDS011;61978;52.742;16.962;2022-07-03T22:43:35;9.60;;;3.27;;
73678;SDS011;61978;52.742;16.962;2022-07-03T22:46:02;6.22;;;2.80;;
73678;SDS011;61978;52.742;16.962;2022-07-03T22:48:29;7.50;;;3.25;;
73678;SDS011;61978;52.742;16.962;2022-07-03T22:50:55;6.80;;;2.65;;
73678;SDS011;61978;52.742;16.962;2022-07-03T22:53:23;4.85;;;2.92;;
73678;SDS011;61978;52.742;16.962;2022-07-03T22:55:50;5.28;;;2.65;;
73678;SDS011;61978;52.742;16.962;2022-07-03T22:58:21;4.87;;;2.90;;
73678;SDS011;61978;52.742;16.962;2022-07-03T23:00:50;8.58;;;2.47;;
73678;SDS011;61978;52.742;16.962;2022-07-03T23:03:23;7.12;;;2.55;;
73678;SDS011;61978;52.742;16.962;2022-07-03T23:05:52;5.42;;;2.27;;
73678;SDS011;61978;52.742;16.962;2022-07-03T23:08:20;4.42;;;3.02;;
73678;SDS011;61978;52.742;16.962;2022-07-03T23:10:48;4.33;;;2.42;;
73678;SDS011;61978;52.742;16.962;2022-07-03T23:13:16;5.30;;;2.75;;
73678;SDS011;61978;52.742;16.962;2022-07-03T23:15:43;4.58;;;2.17;;
73678;SDS011;61978;52.742;16.962;2022-07-03T23:18:10;4.30;;;2.35;;
73678;SDS011;61978;52.742;16.962;2022-07-03T23:20:38;2.30;;;2.00;;
73678;SDS011;61978;52.742;16.962;2022-07-03T23:23:06;4.00;;;2.35;;
73678;SDS011;61978;52.742;16.962;2022-07-03T23:25:33;2.00;;;1.80;;
73678;SDS011;61978;52.742;16.962;2022-07-03T23:28:01;3.92;;;2.40;;
73678;SDS011;61978;52.742;16.962;2022-07-03T23:30:27;3.50;;;2.50;;
73678;SDS011;61978;52.742;16.962;2022-07-03T23:32:55;3.00;;;2.25;;
73678;SDS011;61978;52.742;16.962;2022-07-03T23:35:23;7.15;;;2.02;;
73678;SDS011;61978;52.742;16.962;2022-07-03T23:37:51;2.92;;;1.90;;
73678;SDS011;61978;52.742;16.962;2022-07-03T23:40:17;4.22;;;2.35;;
73678;SDS011;61978;52.742;16.962;2022-07-03T23:42:45;2.65;;;1.80;;
73678;SDS011;61978;52.742;16.962;2022-07-03T23:45:13;3.40;;;1.92;;
73678;SDS011;61978;52.742;16.962;2022-07-03T23:47:41;2.80;;;2.00;;
73678;SDS011;61978;52.742;16.962;2022-07-03T23:50:09;3.22;;;2.00;;
73678;SDS011;61978;52.742;16.962;2022-07-03T23:52:55;4.97;;;2.10;;
73678;SDS011;61978;52.742;16.962;2022-07-03T23:55:22;4.25;;;2.10;;
73678;SDS011;61978;52.742;16.962;2022-07-03T23:57:50;3.12;;;2.15;;
